Terminal Aerodrome Forecast
Issued by NWS

Home | Current Version | Previous Version | Text Only | Print | Product List | Glossary On
Versions: 1 2 3 4 5 6 7 8 9 10 11 12
499
FTUS44 KSJT 271740
TAFBBD
TAF
KBBD 271740Z 2718/2818 VRB06KT P6SM VCTS SCT070CB
     FM280000 VRB06KT P6SM FEW120 SCT250
      AMD NOT SKED=

USA.gov is the U.S. government's official web portal to all federal, state and local government web resources and services.